sensor_id;sensor_type;location;lat;lon;timestamp;pressure;altitude;pressure_sealevel;temperature;humidity
76732;BME280;65656;51.130;13.658;2023-07-20T00:01:45;98846.34;;;14.72;100.00
76732;BME280;65656;51.130;13.658;2023-07-20T00:05:48;98839.78;;;14.68;100.00
76732;BME280;65656;51.130;13.658;2023-07-20T00:09:50;98843.66;;;14.67;100.00
76732;BME280;65656;51.130;13.658;2023-07-20T00:13:52;98845.06;;;14.65;100.00
76732;BME280;65656;51.130;13.658;2023-07-20T00:17:53;98839.53;;;14.65;100.00
76732;BME280;65656;51.130;13.658;2023-07-20T00:21:57;98828.56;;;14.60;100.00
76732;BME280;65656;51.130;13.658;2023-07-20T00:25:58;98825.84;;;14.55;100.00
76732;BME280;65656;51.130;13.658;2023-07-20T00:30:00;98840.75;;;14.54;100.00
76732;BME280;65656;51.130;13.658;2023-07-20T00:34:01;98835.19;;;14.59;100.00
76732;BME280;65656;51.130;13.658;2023-07-20T00:38:04;98830.81;;;14.53;100.00
76732;BME280;65656;51.130;13.658;2023-07-20T00:42:06;98845.72;;;14.52;100.00
76732;BME280;65656;51.130;13.658;2023-07-20T00:46:08;98848.53;;;14.46;100.00
76732;BME280;65656;51.130;13.658;2023-07-20T00:50:10;98843.03;;;14.41;100.00
76732;BME280;65656;51.130;13.658;2023-07-20T00:54:14;98849.66;;;14.40;100.00
76732;BME280;65656;51.130;13.658;2023-07-20T00:58:16;98857.38;;;14.38;100.00
76732;BME280;65656;51.130;13.658;2023-07-20T01:02:18;98853.28;;;14.36;100.00
76732;BME280;65656;51.130;13.658;2023-07-20T01:06:26;98849.19;;;14.33;100.00
76732;BME280;65656;51.130;13.658;2023-07-20T01:10:33;98844.78;;;14.32;100.00
76732;BME280;65656;51.130;13.658;2023-07-20T01:14:37;98853.59;;;14.29;100.00
76732;BME280;65656;51.130;13.658;2023-07-20T01:18:39;98846.53;;;14.18;100.00
76732;BME280;65656;51.130;13.658;2023-07-20T01:23:14;98859.28;;;14.09;100.00
76732;BME280;65656;51.130;13.658;2023-07-20T01:27:54;98862.97;;;13.94;100.00
76732;BME280;65656;51.130;13.658;2023-07-20T01:32:05;98871.03;;;13.85;100.00
76732;BME280;65656;51.130;13.658;2023-07-20T01:36:08;98864.41;;;13.81;100.00
76732;BME280;65656;51.130;13.658;2023-07-20T01:40:13;98855.34;;;13.76;100.00
76732;BME280;65656;51.130;13.658;2023-07-20T01:44:15;98857.34;;;13.70;100.00
76732;BME280;65656;51.130;13.658;2023-07-20T01:48:18;98864.22;;;13.68;100.00
76732;BME280;65656;51.130;13.658;2023-07-20T01:52:20;98859.03;;;13.61;100.00
76732;BME280;65656;51.130;13.658;2023-07-20T01:56:21;98867.88;;;13.53;100.00
76732;BME280;65656;51.130;13.658;2023-07-20T02:00:23;98863.19;;;13.53;100.00
76732;BME280;65656;51.130;13.658;2023-07-20T02:04:26;98859.59;;;13.58;100.00
76732;BME280;65656;51.130;13.658;2023-07-20T02:08:28;98854.06;;;13.63;100.00
76732;BME280;65656;51.130;13.658;2023-07-20T02:12:29;98853.50;;;13.66;100.00
76732;BME280;65656;51.130;13.658;2023-07-20T02:16:31;98847.69;;;13.68;100.00
76732;BME280;65656;51.130;13.658;2023-07-20T02:20:34;98859.00;;;13.71;100.00
76732;BME280;65656;51.130;13.658;2023-07-20T02:24:35;98864.50;;;13.71;100.00
76732;BME280;65656;51.130;13.658;2023-07-20T02:28:37;98861.69;;;13.76;100.00
76732;BME280;65656;51.130;13.658;2023-07-20T02:32:39;98871.88;;;13.76;100.00
76732;BME280;65656;51.130;13.658;2023-07-20T02:36:42;98867.78;;;13.73;100.00
76732;BME280;65656;51.130;13.658;2023-07-20T02:40:43;98856.19;;;13.76;100.00
76732;BME280;65656;51.130;13.658;2023-07-20T02:44:45;98863.34;;;13.77;100.00
76732;BME280;65656;51.130;13.658;2023-07-20T02:48:47;98865.81;;;13.79;100.00
76732;BME280;65656;51.130;13.658;2023-07-20T02:52:49;98874.34;;;13.77;100.00
76732;BME280;65656;51.130;13.658;2023-07-20T02:56:51;98883.19;;;13.69;100.00
76732;BME280;65656;51.130;13.658;2023-07-20T03:00:53;98879.69;;;13.63;100.00
76732;BME280;65656;51.130;13.658;2023-07-20T03:04:54;98885.41;;;13.67;100.00
76732;BME280;65656;51.130;13.658;2023-07-20T03:08:57;98892.31;;;13.70;100.00
76732;BME280;65656;51.130;13.658;2023-07-20T03:12:59;98890.94;;;13.67;100.00
76732;BME280;65656;51.130;13.658;2023-07-20T03:17:00;98890.38;;;13.70;100.00
76732;BME280;65656;51.130;13.658;2023-07-20T03:21:02;98895.88;;;13.70;100.00
76732;BME280;65656;51.130;13.658;2023-07-20T03:25:06;98896.72;;;13.71;100.00
76732;BME280;65656;51.130;13.658;2023-07-20T03:29:07;98898.06;;;13.68;100.00
76732;BME280;65656;51.130;13.658;2023-07-20T03:33:09;98898.59;;;13.75;100.00
76732;BME280;65656;51.130;13.658;2023-07-20T03:37:10;98905.75;;;13.76;100.00
76732;BME280;65656;51.130;13.658;2023-07-20T03:41:13;98906.25;;;13.83;100.00
76732;BME280;65656;51.130;13.658;2023-07-20T03:45:15;98900.72;;;13.93;100.00
76732;BME280;65656;51.130;13.658;2023-07-20T03:49:17;98899.88;;;13.93;100.00
76732;BME280;65656;51.130;13.658;2023-07-20T03:53:19;98897.41;;;13.91;100.00
76732;BME280;65656;51.130;13.658;2023-07-20T03:57:22;98894.13;;;13.89;100.00
76732;BME280;65656;51.130;13.658;2023-07-20T04:01:24;98896.34;;;13.87;100.00
76732;BME280;65656;51.130;13.658;2023-07-20T04:05:26;98901.25;;;13.90;100.00
76732;BME280;65656;51.130;13.658;2023-07-20T04:09:27;98906.16;;;13.99;100.00
76732;BME280;65656;51.130;13.658;2023-07-20T04:13:30;98907.22;;;14.08;100.00
76732;BME280;65656;51.130;13.658;2023-07-20T04:17:32;98910.47;;;14.15;100.00
76732;BME280;65656;51.130;13.658;2023-07-20T04:21:39;98909.91;;;14.18;100.00
76732;BME280;65656;51.130;13.658;2023-07-20T04:25:41;98916.78;;;14.20;100.00
76732;BME280;65656;51.130;13.658;2023-07-20T04:29:44;98914.81;;;14.26;100.00
76732;BME280;65656;51.130;13.658;2023-07-20T04:33:45;98915.56;;;14.37;100.00
76732;BME280;65656;51.130;13.658;2023-07-20T04:37:47;98909.41;;;14.45;100.00
76732;BME280;65656;51.130;13.658;2023-07-20T04:41:48;98911.66;;;14.48;100.00
76732;BME280;65656;51.130;13.658;2023-07-20T04:45:51;98920.19;;;14.46;100.00
76732;BME280;65656;51.130;13.658;2023-07-20T04:49:53;98910.28;;;14.45;100.00
76732;BME280;65656;51.130;13.658;2023-07-20T04:53:54;98910.31;;;14.40;100.00
76732;BME280;65656;51.130;13.658;2023-07-20T04:57:56;98914.16;;;14.39;100.00
76732;BME280;65656;51.130;13.658;2023-07-20T05:01:59;98921.56;;;14.44;100.00
76732;BME280;65656;51.130;13.658;2023-07-20T05:06:01;98921.00;;;14.47;100.00
76732;BME280;65656;51.130;13.658;2023-07-20T05:10:03;98922.38;;;14.49;100.00
76732;BME280;65656;51.130;13.658;2023-07-20T05:14:04;98925.31;;;14.63;100.00
76732;BME280;65656;51.130;13.658;2023-07-20T05:18:07;98924.56;;;14.87;100.00
76732;BME280;65656;51.130;13.658;2023-07-20T05:22:09;98920.88;;;14.96;100.00
76732;BME280;65656;51.130;13.658;2023-07-20T05:26:11;98923.50;;;15.07;100.00
76732;BME280;65656;51.130;13.658;2023-07-20T05:30:12;98927.28;;;15.16;100.00
76732;BME280;65656;51.130;13.658;2023-07-20T05:34:15;98923.69;;;15.39;100.00
76732;BME280;65656;51.130;13.658;2023-07-20T05:38:17;98929.66;;;15.27;100.00
76732;BME280;65656;51.130;13.658;2023-07-20T05:42:18;98930.63;;;15.13;100.00
76732;BME280;65656;51.130;13.658;2023-07-20T05:46:20;98937.75;;;15.19;100.00
76732;BME280;65656;51.130;13.658;2023-07-20T05:50:23;98931.03;;;15.25;100.00
76732;BME280;65656;51.130;13.658;2023-07-20T05:54:25;98938.78;;;15.23;100.00
76732;BME280;65656;51.130;13.658;2023-07-20T05:58:27;98940.09;;;15.30;100.00
76732;BME280;65656;51.130;13.658;2023-07-20T06:02:28;98945.56;;;15.59;100.00
76732;BME280;65656;51.130;13.658;2023-07-20T06:06:31;98954.06;;;15.87;100.00
76732;BME280;65656;51.130;13.658;2023-07-20T06:10:33;98955.59;;;15.98;100.00
76732;BME280;65656;51.130;13.658;2023-07-20T06:14:34;98964.22;;;15.73;100.00
76732;BME280;65656;51.130;13.658;2023-07-20T06:18:36;98953.03;;;15.59;100.00
76732;BME280;65656;51.130;13.658;2023-07-20T06:22:39;98942.06;;;15.25;100.00
76732;BME280;65656;51.130;13.658;2023-07-20T06:26:41;98943.72;;;15.02;100.00
76732;BME280;65656;51.130;13.658;2023-07-20T06:30:42;98955.66;;;14.92;100.00
76732;BME280;65656;51.130;13.658;2023-07-20T06:34:44;98962.09;;;14.83;100.00
76732;BME280;65656;51.130;13.658;2023-07-20T06:38:47;98966.19;;;14.85;100.00
76732;BME280;65656;51.130;13.658;2023-07-20T06:42:51;98964.84;;;15.12;100.00
76732;BME280;65656;51.130;13.658;2023-07-20T06:46:55;98963.28;;;15.00;100.00
76732;BME280;65656;51.130;13.658;2023-07-20T06:50:57;98968.59;;;14.97;100.00
76732;BME280;65656;51.130;13.658;2023-07-20T06:55:00;98963.88;;;14.97;100.00
76732;BME280;65656;51.130;13.658;2023-07-20T06:59:06;98981.31;;;15.22;100.00
76732;BME280;65656;51.130;13.658;2023-07-20T07:03:08;98979.06;;;15.24;100.00
76732;BME280;65656;51.130;13.658;2023-07-20T07:07:09;98977.78;;;15.40;100.00
76732;BME280;65656;51.130;13.658;2023-07-20T07:11:13;98970.97;;;15.62;100.00
76732;BME280;65656;51.130;13.658;2023-07-20T07:15:14;98977.44;;;15.47;100.00
76732;BME280;65656;51.130;13.658;2023-07-20T07:19:17;98977.63;;;15.55;100.00
76732;BME280;65656;51.130;13.658;2023-07-20T07:23:19;98985.56;;;15.86;100.00
76732;BME280;65656;51.130;13.658;2023-07-20T07:27:22;98979.13;;;16.33;100.00
76732;BME280;65656;51.130;13.658;2023-07-20T07:31:24;98988.25;;;16.34;100.00
76732;BME280;65656;51.130;13.658;2023-07-20T07:35:26;98991.09;;;16.48;100.00
76732;BME280;65656;51.130;13.658;2023-07-20T07:39:27;98989.94;;;15.92;100.00
76732;BME280;65656;51.130;13.658;2023-07-20T07:43:37;98989.94;;;15.92;100.00
76732;BME280;65656;51.130;13.658;2023-07-20T07:47:38;98982.75;;;15.91;100.00
76732;BME280;65656;51.130;13.658;2023-07-20T07:51:40;98990.56;;;16.08;100.00
76732;BME280;65656;51.130;13.658;2023-07-20T07:55:42;98989.13;;;16.10;100.00
76732;BME280;65656;51.130;13.658;2023-07-20T07:59:45;98990.13;;;16.20;100.00
76732;BME280;65656;51.130;13.658;2023-07-20T08:03:47;98982.06;;;16.42;100.00
76732;BME280;65656;51.130;13.658;2023-07-20T08:07:48;98990.72;;;16.54;100.00
76732;BME280;65656;51.130;13.658;2023-07-20T08:11:50;98989.84;;;16.78;100.00
76732;BME280;65656;51.130;13.658;2023-07-20T08:15:53;98985.81;;;16.51;100.00
76732;BME280;65656;51.130;13.658;2023-07-20T08:19:54;98994.16;;;16.84;100.00
76732;BME280;65656;51.130;13.658;2023-07-20T08:23:56;98983.78;;;17.08;100.00
76732;BME280;65656;51.130;13.658;2023-07-20T08:27:58;98991.59;;;17.06;100.00
76732;BME280;65656;51.130;13.658;2023-07-20T08:32:01;98984.88;;;17.40;100.00
76732;BME280;65656;51.130;13.658;2023-07-20T08:36:03;98987.50;;;17.17;100.00
76732;BME280;65656;51.130;13.658;2023-07-20T08:40:05;98988.28;;;17.04;100.00
76732;BME280;65656;51.130;13.658;2023-07-20T08:44:08;98994.53;;;17.56;100.00
76732;BME280;65656;51.130;13.658;2023-07-20T08:48:11;98978.44;;;17.58;100.00
76732;BME280;65656;51.130;13.658;2023-07-20T08:52:13;98995.69;;;18.24;100.00
76732;BME280;65656;51.130;13.658;2023-07-20T08:56:16;98990.72;;;18.34;96.42
76732;BME280;65656;51.130;13.658;2023-07-20T09:00:20;98990.22;;;18.32;93.20
76732;BME280;65656;51.130;13.658;2023-07-20T09:04:23;98989.72;;;18.67;94.76
76732;BME280;65656;51.130;13.658;2023-07-20T09:08:25;98999.44;;;18.42;93.10
76732;BME280;65656;51.130;13.658;2023-07-20T09:12:27;98994.88;;;17.96;94.47
76732;BME280;65656;51.130;13.658;2023-07-20T09:16:28;98996.41;;;17.88;98.11
76732;BME280;65656;51.130;13.658;2023-07-20T09:20:33;98995.69;;;18.10;93.57
76732;BME280;65656;51.130;13.658;2023-07-20T09:24:34;98999.50;;;18.14;95.03
76732;BME280;65656;51.130;13.658;2023-07-20T09:28:41;98990.06;;;17.88;92.93
76732;BME280;65656;51.130;13.658;2023-07-20T09:32:44;99004.09;;;18.05;93.73
76732;BME280;65656;51.130;13.658;2023-07-20T09:36:50;98999.59;;;17.95;93.07
76732;BME280;65656;51.130;13.658;2023-07-20T09:40:55;99004.44;;;17.76;93.69
76732;BME280;65656;51.130;13.658;2023-07-20T09:44:59;99014.97;;;17.60;98.24
76732;BME280;65656;51.130;13.658;2023-07-20T09:49:00;99017.38;;;17.34;100.00
76732;BME280;65656;51.130;13.658;2023-07-20T09:53:07;99030.06;;;16.51;100.00
76732;BME280;65656;51.130;13.658;2023-07-20T09:57:11;99020.91;;;16.32;100.00
76732;BME280;65656;51.130;13.658;2023-07-20T10:01:16;99036.84;;;15.97;100.00
76732;BME280;65656;51.130;13.658;2023-07-20T10:05:19;99029.53;;;16.06;100.00
76732;BME280;65656;51.130;13.658;2023-07-20T10:09:23;99013.97;;;16.34;100.00
76732;BME280;65656;51.130;13.658;2023-07-20T10:13:26;99022.28;;;16.53;100.00
76732;BME280;65656;51.130;13.658;2023-07-20T10:17:28;99008.59;;;16.62;100.00
76732;BME280;65656;51.130;13.658;2023-07-20T10:21:30;99015.75;;;16.63;100.00
76732;BME280;65656;51.130;13.658;2023-07-20T10:25:36;99021.22;;;16.49;100.00
76732;BME280;65656;51.130;13.658;2023-07-20T10:29:44;99018.22;;;16.64;100.00
76732;BME280;65656;51.130;13.658;2023-07-20T10:33:51;99017.25;;;17.25;100.00
76732;BME280;65656;51.130;13.658;2023-07-20T10:37:53;99013.63;;;17.44;100.00
76732;BME280;65656;51.130;13.658;2023-07-20T10:42:03;99015.84;;;17.42;100.00
76732;BME280;65656;51.130;13.658;2023-07-20T10:46:10;99016.81;;;17.18;100.00
76732;BME280;65656;51.130;13.658;2023-07-20T10:50:12;99023.16;;;17.05;100.00
76732;BME280;65656;51.130;13.658;2023-07-20T10:54:35;99011.97;;;17.57;100.00
76732;BME280;65656;51.130;13.658;2023-07-20T10:58:38;99021.44;;;17.69;97.87
76732;BME280;65656;51.130;13.658;2023-07-20T11:02:44;99012.84;;;17.85;93.85
76732;BME280;65656;51.130;13.658;2023-07-20T11:06:46;99012.66;;;17.95;96.18
76732;BME280;65656;51.130;13.658;2023-07-20T11:15:44;99003.19;;;17.96;93.19
76732;BME280;65656;51.130;13.658;2023-07-20T11:19:49;98997.84;;;18.13;97.46
76732;BME280;65656;51.130;13.658;2023-07-20T11:23:53;98985.81;;;18.31;95.70
76732;BME280;65656;51.130;13.658;2023-07-20T11:27:55;98988.78;;;19.16;95.77
76732;BME280;65656;51.130;13.658;2023-07-20T11:31:58;98989.25;;;20.28;83.26
76732;BME280;65656;51.130;13.658;2023-07-20T11:35:59;98989.47;;;20.84;79.45
76732;BME280;65656;51.130;13.658;2023-07-20T11:40:01;98992.78;;;20.86;81.26
76732;BME280;65656;51.130;13.658;2023-07-20T11:44:03;98990.41;;;20.19;81.38
76732;BME280;65656;51.130;13.658;2023-07-20T11:48:06;98982.03;;;20.10;84.77
76732;BME280;65656;51.130;13.658;2023-07-20T11:52:08;98992.03;;;19.40;81.06
76732;BME280;65656;51.130;13.658;2023-07-20T11:56:11;98995.16;;;18.94;87.66
76732;BME280;65656;51.130;13.658;2023-07-20T12:00:12;98993.28;;;18.45;93.50
76732;BME280;65656;51.130;13.658;2023-07-20T12:04:16;99007.72;;;17.78;97.87
76732;BME280;65656;51.130;13.658;2023-07-20T12:08:17;99011.16;;;17.56;98.62
76732;BME280;65656;51.130;13.658;2023-07-20T12:12:19;99004.41;;;17.62;99.88
76732;BME280;65656;51.130;13.658;2023-07-20T12:16:21;99017.63;;;17.65;96.92
76732;BME280;65656;51.130;13.658;2023-07-20T12:20:29;99031.88;;;17.45;100.00
76732;BME280;65656;51.130;13.658;2023-07-20T12:24:31;99037.13;;;17.14;97.87
76732;BME280;65656;51.130;13.658;2023-07-20T12:28:32;99029.47;;;16.92;100.00
76732;BME280;65656;51.130;13.658;2023-07-20T12:32:34;99030.09;;;16.65;100.00
76732;BME280;65656;51.130;13.658;2023-07-20T12:36:37;99025.88;;;16.73;100.00
76732;BME280;65656;51.130;13.658;2023-07-20T12:40:39;99033.78;;;16.60;100.00
76732;BME280;65656;51.130;13.658;2023-07-20T12:44:40;99023.72;;;16.69;100.00
76732;BME280;65656;51.130;13.658;2023-07-20T12:48:42;99029.53;;;16.87;100.00
76732;BME280;65656;51.130;13.658;2023-07-20T12:52:49;99021.94;;;17.11;100.00
76732;BME280;65656;51.130;13.658;2023-07-20T12:56:50;99029.34;;;17.16;100.00
76732;BME280;65656;51.130;13.658;2023-07-20T13:00:55;99030.22;;;17.11;100.00
76732;BME280;65656;51.130;13.658;2023-07-20T13:04:58;99024.34;;;17.32;100.00
76732;BME280;65656;51.130;13.658;2023-07-20T13:09:02;99012.84;;;17.71;100.00
76732;BME280;65656;51.130;13.658;2023-07-20T13:13:04;99020.84;;;17.72;96.68
76732;BME280;65656;51.130;13.658;2023-07-20T13:17:05;99017.22;;;17.44;98.61
76732;BME280;65656;51.130;13.658;2023-07-20T13:21:07;99008.25;;;17.34;99.85
76732;BME280;65656;51.130;13.658;2023-07-20T13:25:10;99009.06;;;17.34;100.00
76732;BME280;65656;51.130;13.658;2023-07-20T13:29:12;99003.25;;;17.03;100.00
76732;BME280;65656;51.130;13.658;2023-07-20T13:33:13;98994.69;;;17.18;100.00
76732;BME280;65656;51.130;13.658;2023-07-20T13:37:18;98992.16;;;19.58;88.24
76732;BME280;65656;51.130;13.658;2023-07-20T13:41:24;98994.81;;;19.40;84.05
76732;BME280;65656;51.130;13.658;2023-07-20T13:45:26;99006.97;;;19.00;89.58
76732;BME280;65656;51.130;13.658;2023-07-20T13:49:27;99000.16;;;18.83;86.72
76732;BME280;65656;51.130;13.658;2023-07-20T13:53:30;98993.44;;;19.29;81.88
76732;BME280;65656;51.130;13.658;2023-07-20T13:57:35;99004.31;;;18.72;85.79
76732;BME280;65656;51.130;13.658;2023-07-20T14:01:37;99006.06;;;18.90;86.09
76732;BME280;65656;51.130;13.658;2023-07-20T14:05:39;99009.38;;;18.92;87.62
76732;BME280;65656;51.130;13.658;2023-07-20T14:09:44;99008.03;;;18.54;88.27
76732;BME280;65656;51.130;13.658;2023-07-20T14:13:50;99014.03;;;18.33;92.23
76732;BME280;65656;51.130;13.658;2023-07-20T14:17:51;99018.34;;;18.40;90.26
76732;BME280;65656;51.130;13.658;2023-07-20T14:21:54;99019.81;;;18.09;91.80
76732;BME280;65656;51.130;13.658;2023-07-20T14:25:56;99018.34;;;18.40;91.21
76732;BME280;65656;51.130;13.658;2023-07-20T14:30:01;99012.06;;;19.06;89.17
76732;BME280;65656;51.130;13.658;2023-07-20T14:34:03;99016.56;;;18.93;89.07
76732;BME280;65656;51.130;13.658;2023-07-20T14:38:04;99024.44;;;22.10;73.68
76732;BME280;65656;51.130;13.658;2023-07-20T14:42:06;99026.44;;;24.37;61.44
76732;BME280;65656;51.130;13.658;2023-07-20T14:46:09;99017.03;;;23.72;61.42
76732;BME280;65656;51.130;13.658;2023-07-20T14:50:11;99022.91;;;21.01;74.47
76732;BME280;65656;51.130;13.658;2023-07-20T14:54:13;99022.81;;;22.89;69.37
76732;BME280;65656;51.130;13.658;2023-07-20T14:58:15;99023.38;;;21.21;75.47
76732;BME280;65656;51.130;13.658;2023-07-20T15:02:18;99011.53;;;20.37;80.97
76732;BME280;65656;51.130;13.658;2023-07-20T15:06:20;99010.13;;;20.83;75.19
76732;BME280;65656;51.130;13.658;2023-07-20T15:10:21;99001.78;;;20.57;76.83
76732;BME280;65656;51.130;13.658;2023-07-20T15:14:23;98999.69;;;20.14;79.48
76732;BME280;65656;51.130;13.658;2023-07-20T15:18:26;98999.75;;;19.83;80.64
76732;BME280;65656;51.130;13.658;2023-07-20T15:22:46;99000.97;;;22.02;69.41
76732;BME280;65656;51.130;13.658;2023-07-20T15:26:50;98994.22;;;24.19;58.29
76732;BME280;65656;51.130;13.658;2023-07-20T15:30:59;98984.28;;;22.94;59.79
76732;BME280;65656;51.130;13.658;2023-07-20T15:35:02;98987.94;;;24.22;53.97
76732;BME280;65656;51.130;13.658;2023-07-20T15:39:04;98998.78;;;21.87;61.12
76732;BME280;65656;51.130;13.658;2023-07-20T15:43:06;98983.09;;;23.16;59.01
76732;BME280;65656;51.130;13.658;2023-07-20T15:47:22;98990.00;;;22.56;60.99
76732;BME280;65656;51.130;13.658;2023-07-20T15:51:25;98980.38;;;24.75;51.79
76732;BME280;65656;51.130;13.658;2023-07-20T15:55:27;98986.63;;;23.25;54.77
76732;BME280;65656;51.130;13.658;2023-07-20T15:59:28;98986.22;;;24.70;50.54
76732;BME280;65656;51.130;13.658;2023-07-20T16:03:30;98986.84;;;22.78;55.00
76732;BME280;65656;51.130;13.658;2023-07-20T16:07:35;98991.41;;;21.27;61.87
76732;BME280;65656;51.130;13.658;2023-07-20T16:11:37;98982.06;;;21.31;62.45
76732;BME280;65656;51.130;13.658;2023-07-20T16:15:39;98979.06;;;24.08;51.83
76732;BME280;65656;51.130;13.658;2023-07-20T16:19:43;98983.84;;;24.07;50.86
76732;BME280;65656;51.130;13.658;2023-07-20T16:23:46;98994.56;;;22.02;56.23
76732;BME280;65656;51.130;13.658;2023-07-20T16:27:48;98989.81;;;20.56;62.11
76732;BME280;65656;51.130;13.658;2023-07-20T16:31:50;98989.34;;;19.97;64.17
76732;BME280;65656;51.130;13.658;2023-07-20T16:35:54;98976.84;;;20.35;63.83
76732;BME280;65656;51.130;13.658;2023-07-20T16:40:00;98973.97;;;21.47;58.76
76732;BME280;65656;51.130;13.658;2023-07-20T16:44:03;98970.72;;;22.21;54.26
76732;BME280;65656;51.130;13.658;2023-07-20T16:48:06;98975.56;;;22.04;53.46
76732;BME280;65656;51.130;13.658;2023-07-20T16:52:08;98975.88;;;21.73;55.14
76732;BME280;65656;51.130;13.658;2023-07-20T16:56:11;98979.00;;;20.98;55.84
76732;BME280;65656;51.130;13.658;2023-07-20T17:00:13;98987.78;;;20.31;58.44
76732;BME280;65656;51.130;13.658;2023-07-20T17:04:18;98983.91;;;19.53;62.34
76732;BME280;65656;51.130;13.658;2023-07-20T17:08:19;98977.72;;;19.56;63.86
76732;BME280;65656;51.130;13.658;2023-07-20T17:12:22;98988.53;;;19.26;64.47
76732;BME280;65656;51.130;13.658;2023-07-20T17:16:24;98998.00;;;19.03;67.20
76732;BME280;65656;51.130;13.658;2023-07-20T17:20:26;98983.63;;;18.78;68.62
76732;BME280;65656;51.130;13.658;2023-07-20T17:24:30;98982.59;;;18.74;69.47
76732;BME280;65656;51.130;13.658;2023-07-20T17:28:36;98978.31;;;18.90;69.17
76732;BME280;65656;51.130;13.658;2023-07-20T17:32:41;98977.00;;;19.10;67.58
76732;BME280;65656;51.130;13.658;2023-07-20T17:36:43;98972.69;;;19.04;69.21
76732;BME280;65656;51.130;13.658;2023-07-20T17:40:47;98965.59;;;19.52;65.67
76732;BME280;65656;51.130;13.658;2023-07-20T17:44:50;98965.34;;;19.00;67.82
76732;BME280;65656;51.130;13.658;2023-07-20T17:48:52;98970.50;;;18.70;69.98
76732;BME280;65656;51.130;13.658;2023-07-20T17:52:54;98962.06;;;18.39;71.83
76732;BME280;65656;51.130;13.658;2023-07-20T17:56:55;98968.25;;;18.22;71.64
76732;BME280;65656;51.130;13.658;2023-07-20T18:00:59;98976.28;;;18.10;73.32
76732;BME280;65656;51.130;13.658;2023-07-20T18:05:00;98966.84;;;18.11;73.33
76732;BME280;65656;51.130;13.658;2023-07-20T18:09:02;98966.31;;;18.09;74.37
76732;BME280;65656;51.130;13.658;2023-07-20T18:13:04;98959.88;;;18.00;74.90
76732;BME280;65656;51.130;13.658;2023-07-20T18:17:07;98958.44;;;17.89;75.68
76732;BME280;65656;51.130;13.658;2023-07-20T18:21:09;98959.28;;;17.75;76.51
76732;BME280;65656;51.130;13.658;2023-07-20T18:25:10;98958.44;;;17.61;76.90
76732;BME280;65656;51.130;13.658;2023-07-20T18:29:12;98957.59;;;17.47;77.58
76732;BME280;65656;51.130;13.658;2023-07-20T18:33:15;98957.59;;;17.33;78.50
76732;BME280;65656;51.130;13.658;2023-07-20T18:37:17;98958.59;;;17.23;79.26
76732;BME280;65656;51.130;13.658;2023-07-20T18:41:19;98954.66;;;17.11;79.37
76732;BME280;65656;51.130;13.658;2023-07-20T18:45:20;98954.63;;;16.83;82.52
76732;BME280;65656;51.130;13.658;2023-07-20T18:49:24;98956.34;;;16.60;83.36
76732;BME280;65656;51.130;13.658;2023-07-20T18:53:25;98966.69;;;16.36;86.48
76732;BME280;65656;51.130;13.658;2023-07-20T18:57:27;98971.81;;;16.24;88.45
76732;BME280;65656;51.130;13.658;2023-07-20T19:01:28;98966.28;;;16.05;89.71
76732;BME280;65656;51.130;13.658;2023-07-20T19:05:33;98963.13;;;15.93;92.54
76732;BME280;65656;51.130;13.658;2023-07-20T19:09:34;98964.78;;;15.70;93.59
76732;BME280;65656;51.130;13.658;2023-07-20T19:13:36;98965.00;;;15.49;95.36
76732;BME280;65656;51.130;13.658;2023-07-20T19:17:37;98972.38;;;15.30;96.08
76732;BME280;65656;51.130;13.658;2023-07-20T19:21:40;98976.56;;;15.27;94.65
76732;BME280;65656;51.130;13.658;2023-07-20T19:25:45;98991.84;;;15.15;96.80
76732;BME280;65656;51.130;13.658;2023-07-20T19:29:46;98992.53;;;15.01;97.70
76732;BME280;65656;51.130;13.658;2023-07-20T19:33:48;99000.94;;;14.86;99.16
76732;BME280;65656;51.130;13.658;2023-07-20T19:37:51;99011.50;;;14.79;99.54
76732;BME280;65656;51.130;13.658;2023-07-20T19:41:53;99008.25;;;14.67;100.00
76732;BME280;65656;51.130;13.658;2023-07-20T19:45:54;99020.50;;;14.51;99.72
76732;BME280;65656;51.130;13.658;2023-07-20T19:49:56;99003.38;;;14.54;100.00
76732;BME280;65656;51.130;13.658;2023-07-20T19:53:59;99015.50;;;14.58;99.23
76732;BME280;65656;51.130;13.658;2023-07-20T19:58:04;99013.81;;;14.62;99.51
76732;BME280;65656;51.130;13.658;2023-07-20T20:02:06;99005.00;;;14.60;99.98
76732;BME280;65656;51.130;13.658;2023-07-20T20:06:08;99005.91;;;14.45;100.00
76732;BME280;65656;51.130;13.658;2023-07-20T20:10:11;99012.06;;;14.27;99.83
76732;BME280;65656;51.130;13.658;2023-07-20T20:14:12;99011.59;;;14.14;100.00
76732;BME280;65656;51.130;13.658;2023-07-20T20:18:14;99025.47;;;13.94;100.00
76732;BME280;65656;51.130;13.658;2023-07-20T20:22:16;99019.72;;;13.85;100.00
76732;BME280;65656;51.130;13.658;2023-07-20T20:26:19;99020.03;;;13.79;100.00
76732;BME280;65656;51.130;13.658;2023-07-20T20:30:20;99019.78;;;13.70;100.00
76732;BME280;65656;51.130;13.658;2023-07-20T20:34:22;99025.56;;;13.63;100.00
76732;BME280;65656;51.130;13.658;2023-07-20T20:38:23;99028.84;;;13.71;100.00
76732;BME280;65656;51.130;13.658;2023-07-20T20:42:26;99028.03;;;13.60;100.00
76732;BME280;65656;51.130;13.658;2023-07-20T20:46:28;99025.31;;;13.45;100.00
76732;BME280;65656;51.130;13.658;2023-07-20T20:50:30;99027.00;;;13.35;100.00
76732;BME280;65656;51.130;13.658;2023-07-20T20:54:31;99022.63;;;13.24;100.00
76732;BME280;65656;51.130;13.658;2023-07-20T20:58:34;99034.16;;;13.21;100.00
76732;BME280;65656;51.130;13.658;2023-07-20T21:02:36;99029.47;;;13.17;100.00
76732;BME280;65656;51.130;13.658;2023-07-20T21:06:37;99033.34;;;13.16;100.00